This is the latest recevied weather packets stored in our database for station/object DH4SBM. If no packets are shown the sender has not sent any weather packets the latest 10 day(s).
| Time | Temp. | Humidity | Pressure | Rain* | Wind** | Luminosity | Snow |
|---|---|---|---|---|---|---|---|
| 1778088344 | 12.22° C | 89% | 1008.4 hPa | 0.25 mm | - | 16 W/m² | - |
| 1778087744 | 12.22° C | 89% | 1008.2 hPa | 0.25 mm | - | 19 W/m² | - |
| 1778087146 | 12.78° C | 89% | 1008.1 hPa | 0.25 mm | - | 23 W/m² | - |
| 1778086546 | 12.78° C | 88% | 1008.2 hPa | 0 mm | - | 28 W/m² | - |
| 1778085944 | 12.78° C | 87% | 1008.2 hPa | 0 mm | - | 33 W/m² | - |
| 1778085344 | 12.78° C | 87% | 1008.3 hPa | 0 mm | - | 39 W/m² | - |
| 1778084744 | 12.78° C | 86% | 1008.3 hPa | 0 mm | - | 33 W/m² | - |
| 1778084146 | 12.78° C | 87% | 1008.2 hPa | 0 mm | - | 46 W/m² | - |
| 1778083546 | 12.78° C | 87% | 1008.2 hPa | 0 mm | - | 44 W/m² | - |
| 1778082946 | 12.78° C | 87% | 1008.1 hPa | 0 mm | - | 56 W/m² | - |
| 1778082346 | 12.78° C | 87% | 1008 hPa | 0 mm | - | 74 W/m² | - |
| 1778081746 | 12.78° C | 87% | 1008 hPa | 0 mm | - | 62 W/m² | - |
| 1778081146 | 12.78° C | 87% | 1008 hPa | 0 mm | - | 58 W/m² | - |
| 1778080546 | 12.78° C | 87% | 1007.8 hPa | 0 mm | - | 113 W/m² | - |
| 1778079946 | 12.78° C | 87% | 1007.7 hPa | 0 mm | - | 105 W/m² | - |
| 1778079346 | 12.78° C | 87% | 1007.6 hPa | 0 mm | - | 118 W/m² | - |
| 1778078746 | 12.78° C | 86% | 1007.5 hPa | 0 mm | - | 95 W/m² | - |
| 1778078146 | 13.33° C | 85% | 1007.6 hPa | 0 mm | - | 104 W/m² | - |
| 1778077544 | 13.33° C | 82% | 1007.6 hPa | 0 mm | - | 79 W/m² | - |
| 1778076944 | 14.44° C | 78% | 1007.5 hPa | 0 mm | - | 109 W/m² | - |
| 1778076344 | 16.67° C | 76% | 1007.1 hPa | 0 mm | - | 216 W/m² | - |
| 1778075744 | 16.67° C | 71% | 1007 hPa | 0 mm | - | 146 W/m² | - |
| 1778075144 | 16.67° C | 71% | 1006.9 hPa | 0 mm | - | 102 W/m² | - |
| 1778074544 | 17.22° C | 69% | 1006.8 hPa | 0 mm | - | 125 W/m² | - |
| 1778073944 | 17.22° C | 70% | 1006.8 hPa | 0 mm | - | 142 W/m² | - |
* Rain latest hour (hover to see other rain measurements)
** Current wind speed in m/s (hover to see current wind gust speed)